Walkerton, Indiana
Current Conditions -  °F | °C
As of 9:15 PM on Saturday 22 Nov 2014 (Local Time) from KOXI Reporting Station
Overcast Overcast  
Wind Chill: 45°   Ceiling: 2400
Heat Index: 49°   Visibility: 10mi
Dew Point: 44°   Wind: 10mph
Humidity: 81%   Direction: 200°SSW
Pressure: 29.93"   Gusts: NA
Location:  41.47°N, 86.48°W
Report Text: KOXI 230215Z AUTO 20009KT 10SM OVC024 10/07 A2993 RMK AO1 T00970065
Loading
Personal Weather Stations






























Interactive Weather Map New forecast layout! Learn more

10-Day Weather Forecast

Advertisements
Track Severe Weather on mobile